Latest Coastal Weather Observations for Darwin Harbour

IDD60701

Issued at 11:21 pm CST Friday 24 March 2017 (issued every 10 minutes, with the page automatically refreshed every 10 minutes)

About coastal observations | Map of coastal stations | Coastal observations for NT | Marine services | Other Formats
Station Details ID: 014072 Name: DARWIN NTC AWS Lat: -12.47 Lon: 130.85 Height: 0.0 m
Data from the previous 72 hours. | See also: Recent months for locations in Northern Territory
Date/Time
CST
Temp
°C
Wind Pressure Rain since
9am
mm
Weather Cloud Vis
km
Sea
Height
m
Swell
Dir  Spd
kts
Gust
kts
hPa Trend Height
m
Period
s
Dir
24/11:00pm - S 14 16 1008.0 - - - - - - - - -
24/10:30pm - SSW 13 15 1008.0 - - - - - - - - -
24/10:00pm - SSE 3 9 1008.0 - - - - - - - - -
24/09:30pm - ENE 1 3 1007.4 - - - - - - - - -
24/09:00pm - ENE 2 4 1007.0 - - - - - - - - -
24/08:30pm - NE 2 5 1006.4 - - - - - - - - -
24/08:00pm - NE 5 9 1005.9 - - - - - - - - -
24/07:30pm - NE 7 13 1005.5 - - - - - - - - -
24/07:00pm - NNE 2 5 1005.4 - - - - - - - - -
24/06:30pm - NNW 3 6 1004.9 - - - - - - - - -
24/06:00pm - N 5 7 1005.1 - - - - - - - - -
24/05:30pm - N 4 6 1004.9 - - - - - - - - -
24/05:00pm - ESE 5 7 1004.4 - - - - - - - - -
24/04:30pm - ESE 4 6 1004.0 - - - - - - - - -
24/04:00pm - ESE 3 5 1004.8 - - - - - - - - -
24/03:30pm - SE 5 7 1005.0 - - - - - - - - -
24/03:00pm - SE 11 24 1005.4 - - - - - - - - -
24/02:55pm - SW 5 24 1005.4 - - - - - - - - -
24/02:30pm - NNW 4 7 1005.3 - - - - - - - - -
24/02:00pm - WNW 5 7 1005.3 - - - - - - - - -
24/01:30pm - SW 3 6 1006.0 - - - - - - - - -
24/01:00pm - SW 5 7 1006.7 - - - - - - - - -
24/12:30pm - SSW 7 8 1007.1 - - - - - - - - -
24/12:00pm - SSW 7 9 1007.7 - - - - - - - - -
24/11:30am - S 5 7 1008.3 - - - - - - - - -
24/11:00am - SE 5 7 1008.7 - - - - - - - - -
24/10:30am - ESE 4 6 1009.0 - - - - - - - - -
24/10:00am - ESE 7 8 1008.9 - - - - - - - - -
24/09:30am - ESE 5 7 1008.9 - - - - - - - - -
24/09:00am - SE 4 7 1008.9 - - - - - - - - -
24/08:30am - SSE 6 9 1008.5 - - - - - - - - -
24/08:00am - ESE 4 6 1008.1 - - - - - - - - -
24/07:30am - ESE 7 8 1007.8 - - - - - - - - -
24/07:00am - ESE 6 9 1007.5 - - - - - - - - -
24/06:30am - ESE 7 9 1007.2 - - - - - - - - -
24/06:00am - E 5 7 1007.1 - - - - - - - - -
24/05:30am - E 4 7 1007.3 - - - - - - - - -
24/05:00am - ESE 6 8 1007.0 - - - - - - - - -
24/04:30am - SE 5 7 1006.8 - - - - - - - - -
24/04:00am - S 4 6 1007.3 - - - - - - - - -
24/03:30am - SSW 2 5 1007.5 - - - - - - - - -
24/03:00am - SSE 5 8 1007.2 - - - - - - - - -
24/02:30am - ENE 5 8 1007.1 - - - - - - - - -
24/02:00am - ENE 5 8 1007.5 - - - - - - - - -
24/01:30am - E 9 12 1007.3 - - - - - - - - -
24/01:00am - E 7 12 1007.7 - - - - - - - - -
24/12:30am - E 8 11 1007.9 - - - - - - - - -
24/12:00am - E 6 8 1008.4 - - - - - - - - -
 
Date/Time
CST
Temp
°C
Wind Pressure Rain since
9am
mm
Weather Cloud Vis
km
Sea
Height
m
Swell
Dir  Spd
kts
Gust
kts
hPa Trend Height
m
Period
s
Dir
23/11:30pm - SSE 8 11 1008.8 - - - - - - - - -
23/11:00pm - SSE 8 11 1009.2 - - - - - - - - -
23/10:30pm - SSE 13 16 1009.5 - - - - - - - - -
23/10:00pm - SSE 9 13 1009.0 - - - - - - - - -
23/09:30pm - SE 12 18 1009.2 - - - - - - - - -
23/09:00pm - SSE 5 7 1008.4 - - - - - - - - -
23/08:30pm - S 7 9 1008.1 - - - - - - - - -
23/08:00pm - SSW 10 13 1007.9 - - - - - - - - -
23/07:30pm - S 13 16 1007.5 - - - - - - - - -
23/07:00pm - SW 8 10 1006.9 - - - - - - - - -
23/06:30pm - SW 9 11 1006.2 - - - - - - - - -
23/06:00pm - WSW 7 9 1006.0 - - - - - - - - -
23/05:30pm - WSW 9 11 1006.2 - - - - - - - - -
23/05:00pm - WSW 9 11 1005.9 - - - - - - - - -
23/04:30pm - WSW 9 13 1005.8 - - - - - - - - -
23/04:00pm - W 9 13 1005.9 - - - - - - - - -
23/03:30pm - WNW 5 10 1005.9 - - - - - - - - -
23/03:00pm - NW 5 10 1006.1 - - - - - - - - -
23/02:30pm - WNW 6 9 1006.5 - - - - - - - - -
23/02:00pm - WNW 6 10 1006.8 - - - - - - - - -
23/01:30pm - WNW 8 10 1007.3 - - - - - - - - -
23/01:00pm - W 6 9 1007.9 - - - - - - - - -
23/12:30pm - W 5 6 1008.4 - - - - - - - - -
23/12:00pm - W 4 6 1009.1 - - - - - - - - -
23/11:30am - SW 1 3 1009.4 - - - - - - - - -
23/11:00am - WNW 4 6 1009.6 - - - - - - - - -
23/10:30am - NW 6 11 1010.1 - - - - - - - - -
23/10:00am - NW 7 11 1010.3 - - - - - - - - -
23/09:30am - ENE 3 6 1010.0 - - - - - - - - -
23/09:00am - E 4 7 1009.8 - - - - - - - - -
23/08:30am - E 4 6 1009.2 - - - - - - - - -
23/08:00am - ENE 3 4 1008.7 - - - - - - - - -
23/07:30am - NNE 1 3 1008.5 - - - - - - - - -
23/07:00am - NNE 1 3 1008.2 - - - - - - - - -
23/06:30am - NE 2 5 1007.9 - - - - - - - - -
23/06:00am - ENE 2 5 1007.5 - - - - - - - - -
23/05:30am - ENE 3 5 1007.4 - - - - - - - - -
23/05:00am - ENE 3 8 1007.3 - - - - - - - - -
23/04:30am - ENE 4 6 1007.2 - - - - - - - - -
23/04:00am - E 3 4 1007.2 - - - - - - - - -
23/03:30am - ENE 2 4 1007.5 - - - - - - - - -
23/03:00am - E 3 4 1007.5 - - - - - - - - -
23/02:30am - ENE 3 4 1007.4 - - - - - - - - -
23/02:00am - ESE 4 5 1007.8 - - - - - - - - -
23/01:30am - SE 4 5 1008.2 - - - - - - - - -
23/01:00am - SSW 3 4 1008.6 - - - - - - - - -
23/12:30am - SW 4 5 1009.1 - - - - - - - - -
23/12:00am - SW 3 5 1009.1 - - - - - - - - -
 
Date/Time
CST
Temp
°C
Wind Pressure Rain since
9am
mm
Weather Cloud Vis
km
Sea
Height
m
Swell
Dir  Spd
kts
Gust
kts
hPa Trend Height
m
Period
s
Dir
22/11:30pm - WSW 2 4 1009.4 - - - - - - - - -
22/11:00pm - SW 3 5 1009.4 - - - - - - - - -
22/10:30pm - SSW 3 5 1009.6 - - - - - - - - -
22/10:00pm - SSW 5 7 1009.5 - - - - - - - - -
22/09:30pm - SW 3 4 1008.9 - - - - - - - - -
22/09:00pm - W 2 3 1008.1 - - - - - - - - -
22/08:30pm - WSW 3 4 1008.0 - - - - - - - - -
22/08:00pm - WSW 7 10 1007.8 - - - - - - - - -
22/07:30pm - W 5 7 1007.7 - - - - - - - - -
22/07:00pm - W 5 7 1007.2 - - - - - - - - -
22/06:30pm - W 5 8 1006.7 - - - - - - - - -
22/06:00pm - WSW 3 5 1006.5 - - - - - - - - -
22/05:30pm - WSW 4 6 1006.5 - - - - - - - - -
22/05:00pm - WSW 5 8 1006.3 - - - - - - - - -
22/04:30pm - W 5 8 1006.1 - - - - - - - - -
22/04:00pm - W 7 11 1006.1 - - - - - - - - -
22/03:30pm - W 8 12 1006.3 - - - - - - - - -
22/03:00pm - W 8 12 1006.7 - - - - - - - - -
22/02:30pm - W 11 16 1007.1 - - - - - - - - -
22/02:00pm - NW 8 14 1007.5 - - - - - - - - -
22/01:30pm - NW 8 14 1008.1 - - - - - - - - -
22/01:00pm - NNW 8 17 1008.5 - - - - - - - - -
22/12:30pm - WNW 7 11 1008.3 - - - - - - - - -
22/12:00pm - WSW 2 8 1008.7 - - - - - - - - -
22/11:30am - S 2 3 1009.4 - - - - - - - - -
22/11:00am - ESE 4 5 1009.5 - - - - - - - - -
22/10:30am - SE 4 5 1009.8 - - - - - - - - -
22/10:00am - ESE 4 6 1009.8 - - - - - - - - -
22/09:30am - ESE 6 8 1009.7 - - - - - - - - -
22/09:00am - SE 6 9 1009.4 - - - - - - - - -
22/08:30am - SE 6 7 1009.1 - - - - - - - - -
22/08:00am - SE 4 6 1008.4 - - - - - - - - -
22/07:30am - SE 5 7 1008.3 - - - - - - - - -
22/07:00am - SSW 4 5 1008.0 - - - - - - - - -
22/06:30am - SW 3 5 1008.0 - - - - - - - - -
22/06:00am - S 5 7 1007.8 - - - - - - - - -
22/05:30am - SW 6 9 1007.3 - - - - - - - - -
22/05:00am - SW 4 6 1006.9 - - - - - - - - -
22/04:30am - W 5 7 1006.6 - - - - - - - - -
22/04:00am - W 7 10 1006.8 - - - - - - - - -
22/03:30am - W 7 11 1007.4 - - - - - - - - -
22/03:00am - WSW 5 7 1007.5 - - - - - - - - -
22/02:30am - WSW 4 6 1007.8 - - - - - - - - -
22/02:00am - WSW 4 6 1008.3 - - - - - - - - -
22/01:30am - WSW 5 7 1008.5 - - - - - - - - -
22/01:00am - WSW 4 6 1008.5 - - - - - - - - -
22/12:30am - WSW 6 8 1008.7 - - - - - - - - -
22/12:00am - WSW 6 8 1008.9 - - - - - - - - -
 
Date/Time
CST
Temp
°C
Wind Pressure Rain since
9am
mm
Weather Cloud Vis
km
Sea
Height
m
Swell
Dir  Spd
kts
Gust
kts
hPa Trend Height
m
Period
s
Dir
21/11:30pm - WNW 2 4 1009.0 - - - - - - - - -

Other Formats:

Comma delimited format used in spreadsheet applications
http://www.bom.gov.au/fwo/IDD60701/IDD60701.95122.axf

JavaScript Object Notation format (JSON) in row-major order
http://www.bom.gov.au/fwo/IDD60701/IDD60701.95122.json